Main page
METAR-TAF:

METAR-TAF

Airports :

Luton Airport

Luton, England

latitude: 51-52N, longitude: 000-22W, elevation: 160 m

Current weather observation

The report was made 39 minutes ago, at 20:50 UTC
Wind 8 kt from the North/Northwest
Temperature 5°C
Humidity 87%
Pressure 1036 hPa
Visibility 10 km or more
Overcast at a height of 1300 ft

METAR: EGGW 222050Z AUTO 33008KT 9999 OVC013 05/03 Q1036

Time: 21:29 (21:29 UTC)

Forecast

The report was made 2 hours and 32 minutes ago, at 18:57 UTC
Forecast valid from 22 at 18 UTC to 23 at 18 UTC
Wind 5 kt from the West
Visibility 10 km or more
Broken clouds at a height of 1600 ft
Temporary
from 22 at 18 UTC to 23 at 11 UTC
Visibility: 8000 m
Broken clouds at a height of 1200 ft
Probability 30% :
Temporary
from 23 at 11 UTC to 23 at 18 UTC
Broken clouds at a height of 1200 ft

TAF: EGGW 221857Z 2218/2318 28005KT 9999 BKN016 TEMPO 2218/2311 8000 BKN012 PROB30 TEMPO 2311/2318 BKN012

Weather observations and forecasts of more than 4000 airports (METAR and TAF reports).

The available stations are represented by yellow and red dots on the map.

Hover mouse over dot to see the name of the station.

Then click to see weather observations and forecasts.

To change the map : click on the green buttons with a black cross to zoom in, on the green button with a dash to zoom out, or on the green arrows for adjacent maps.


METAR-TAF: